Home > Products > Valid Products > MTR

000
SAUS44 KEWX 042252
MTRATT
METAR KATT 042251Z AUTO 35011G20KT 310V020 10SM OVC008 11/09 A2990
RMK AO2 CIG 007V012 PRESRR SLP125 T01110089





000
SAUS44 KEWX 042153
MTRATT
METAR KATT 042151Z AUTO 02012G22KT 10SM BKN009 OVC013 14/13 A2984
RMK AO2 CIG 007V012 SLP102 T01440128





000
SAUS44 KEWX 042125
MTRATT
SPECI KATT 042124Z AUTO VRB05KT 7SM FEW008 BKN012 OVC075 21/19 A2983
RMK AO2 T02060189





000
SAUS44 KEWX 042119
MTRATT
SPECI KATT 042118Z AUTO 36005KT 7SM SCT012 BKN018 OVC075 21/19 A2982
RMK AO2 T02060189





000
SAUS44 KEWX 042111
MTRATT
SPECI KATT 042110Z AUTO 35003KT 7SM SCT012 SCT018 OVC075 21/19 A2982
RMK AO2 T02060189





000
SAUS44 KEWX 042059
MTRATT
SPECI KATT 042058Z AUTO 34004KT 7SM FEW006 BKN014 OVC075 21/19 A2982
RMK AO2 T02110194





000
SAUS44 KEWX 042053
MTRATT
METAR KATT 042051Z AUTO 00000KT 7SM OVC014 21/19 A2982 RMK AO2
RAB00E13 SLP091 P0000 60002 T02060189 56016





000
SAUS44 KEWX 042053
MTRATT
METAR KATT 042051Z AUTO 00000KT 7SM OVC014 21/19 A2982 RMK AO2
RAB00E13 SLP091 P0000 60002 T02060189 56016





000
SAUS44 KEWX 042035
MTRATT
SPECI KATT 042034Z AUTO 00000KT 4SM BR FEW004 OVC014 20/19 A2982 RMK
AO2 RAB00E13 P0000 T02000189





000
SAUS44 KEWX 042017
MTRATT
SPECI KATT 042016Z AUTO 00000KT 4SM BR BKN014 OVC020 20/19 A2982 RMK
AO2 RAB00E13 P0000 T02000189





000
SAUS44 KEWX 042017
MTRATT
SPECI KATT 042016Z AUTO 00000KT 4SM BR BKN014 OVC020 20/19 A2982 RMK
AO2 RAB00E13 P0000 T02000189





000
SAUS44 KEWX 042009
MTRATT
SPECI KATT 042008Z AUTO 00000KT 2 1/2SM -RA BR OVC012 20/19 A2982
RMK AO2 RAB00 P0000 T02000194





000
SAUS44 KEWX 041952
MTRATT
METAR KATT 041951Z AUTO 00000KT 4SM BR BKN012 OVC016 19/19 A2982 RMK
AO2 RAE41 SLP094 P0002 T01940189





000
SAUS44 KEWX 041952
MTRATT
METAR KATT 041951Z AUTO 00000KT 4SM BR BKN012 OVC016 19/19 A2982 RMK
AO2 RAE41 SLP094 P0002 T01940189





000
SAUS44 KEWX 041944
MTRATT
SPECI KATT 041943Z AUTO 00000KT 3SM BR SCT007 OVC012 19/19 A2983 RMK
AO2 RAE41 P0002 T01940189





000
SAUS44 KEWX 041853
MTRATT
METAR KATT 041851Z AUTO 00000KT 1SM -RA BR OVC005 19/18 A2984 RMK
AO2 RAB39 SLP102 P0000 T01890183





000
SAUS44 KEWX 041853
MTRATT
METAR KATT 041851Z AUTO 00000KT 1SM -RA BR OVC005 19/18 A2984 RMK
AO2 RAB39 SLP102 P0000 T01890183





000
SAUS44 KEWX 041835
MTRATT
SPECI KATT 041834Z AUTO 00000KT 1 1/2SM BR OVC005 19/18 A2985 RMK
AO2 T01890183





000
SAUS44 KEWX 041835
MTRATT
SPECI KATT 041834Z AUTO 00000KT 1 1/2SM BR OVC005 19/18 A2985 RMK
AO2 T01890183





000
SAUS44 KEWX 041752
MTRATT
METAR KATT 041751Z AUTO 00000KT 1 1/2SM BR OVC003 18/18 A2986 RMK
AO2 SLP107 60010 T01830178 10183 20161 55001





000
SAUS44 KEWX 041752
MTRATT
METAR KATT 041751Z AUTO 00000KT 1 1/2SM BR OVC003 18/18 A2986 RMK
AO2 SLP107 60010 T01830178 10183 20161 55001





000
SAUS44 KEWX 041723
MTRATT
SPECI KATT 041722Z AUTO 00000KT 2 1/2SM BR OVC004 18/18 A2987 RMK
AO2 T01830178





000
SAUS44 KEWX 041723
MTRATT
SPECI KATT 041722Z AUTO 00000KT 2 1/2SM BR OVC004 18/18 A2987 RMK
AO2 T01830178





000
SAUS44 KEWX 041711
MTRATT
SPECI KATT 041710Z AUTO 00000KT 1 1/2SM BR OVC004 18/18 A2986 RMK
AO2 T01830178





000
SAUS44 KEWX 041711
MTRATT
SPECI KATT 041710Z AUTO 00000KT 1 1/2SM BR OVC004 18/18 A2986 RMK
AO2 T01830178





000
SAUS44 KEWX 041701
MTRATT
SPECI KATT 041700Z AUTO 00000KT 2SM BR OVC004 18/18 A2986 RMK AO2
T01780178





000
SAUS44 KEWX 041701
MTRATT
SPECI KATT 041700Z AUTO 00000KT 2SM BR OVC004 18/18 A2986 RMK AO2
T01780178





000
SAUS44 KEWX 041652
MTRATT
METAR KATT 041651Z AUTO 00000KT 1 3/4SM BR OVC004 18/18 A2986 RMK
AO2 RAE37 SLP107 P0001 T01780178





000
SAUS44 KEWX 041644
MTRATT
SPECI KATT 041642Z AUTO 00000KT 2SM BR OVC003 18/18 A2986 RMK AO2
RAE37 P0001 T01780178





000
SAUS44 KEWX 041611
MTRATT
SPECI KATT 041610Z AUTO 00000KT 1SM -RA BR OVC003 17/17 A2987 RMK
AO2 P0000 T01720172





000
SAUS44 KEWX 041611
MTRATT
SPECI KATT 041610Z AUTO 00000KT 1SM -RA BR OVC003 17/17 A2987 RMK
AO2 P0000 T01720172





000
SAUS44 KEWX 041552
MTRATT
METAR KATT 041551Z AUTO 00000KT 1/2SM -RA FG VV003 17/17 A2987 RMK
AO2 SLP110 P0006 T01720172





000
SAUS44 KEWX 041531
MTRATT
SPECI KATT 041529Z AUTO 00000KT 1/4SM -RA FG VV003 17/17 A2986 RMK
AO2 P0004 T01720172





000
SAUS44 KEWX 041452
MTRATT
METAR KATT 041451Z AUTO 00000KT 1/2SM -RA FG OVC002 17/17 A2986 RMK
AO2 RAB45 SLP108 P0001 60003 T01720167 53008





000
SAUS44 KEWX 041452
MTRATT
METAR KATT 041451Z AUTO 00000KT 1/2SM -RA FG OVC002 17/17 A2986 RMK
AO2 RAB45 SLP108 P0001 60003 T01720167 53008





000
SAUS44 KEWX 041436
MTRATT
SPECI KATT 041435Z AUTO 00000KT 1/2SM FG VV003 17/17 A2985 RMK AO2
T01720167





000
SAUS44 KEWX 041436
MTRATT
SPECI KATT 041435Z AUTO 00000KT 1/2SM FG VV003 17/17 A2985 RMK AO2
T01720167





000
SAUS44 KEWX 041404
MTRATT
SPECI KATT 041403Z AUTO 08003KT 1/4SM FG VV004 17/17 A2984 RMK AO2
T01670167





000
SAUS44 KEWX 041352
MTRATT
METAR KATT 041351Z AUTO 07003KT 1/2SM FG OVC003 17/17 A2984 RMK AO2
RAE30 SLP101 P0002 T01670167





000
SAUS44 KEWX 041352
MTRATT
METAR KATT 041351Z AUTO 07003KT 1/2SM FG OVC003 17/17 A2984 RMK AO2
RAE30 SLP101 P0002 T01670167





000
SAUS44 KEWX 041347
MTRATT
SPECI KATT 041346Z AUTO 07003KT 1/2SM FG OVC003 17/17 A2984 RMK AO2
RAE30 P0002





000
SAUS44 KEWX 041327
MTRATT
SPECI KATT 041325Z AUTO 00000KT 1 1/4SM -RA BR OVC003 17/16 A2985
RMK AO2 P0002 T01670161





000
SAUS44 KEWX 041327
MTRATT
SPECI KATT 041325Z AUTO 00000KT 1 1/4SM -RA BR OVC003 17/16 A2985
RMK AO2 P0002 T01670161





000
SAUS44 KEWX 041253
MTRATT
METAR KATT 041251Z AUTO 00000KT 1/2SM -RA FG VV003 17/17 A2984 RMK
AO2 RAB38 SLP100 P0000 T01670167





000
SAUS44 KEWX 041152
MTRATT
METAR KATT 041151Z AUTO 00000KT 1/2SM FG VV003 16/16 A2984 RMK AO2
SLP100 70001 T01610161 10167 20150 56001





000
SAUS44 KEWX 041152
MTRATT
METAR KATT 041151Z AUTO 00000KT 1/2SM FG VV003 16/16 A2984 RMK AO2
SLP100 70001 T01610161 10167 20150 56001





000
SAUS44 KEWX 041123
MTRATT
SPECI KATT 041122Z AUTO 00000KT 1/2SM FG VV003 16/16 A2984 RMK AO2
T01610161





000
SAUS44 KEWX 041103
MTRATT
SPECI KATT 041102Z AUTO 00000KT 1/4SM FG VV003 16/16 A2983 RMK AO2
T01610161





000
SAUS44 KEWX 041103
MTRATT
SPECI KATT 041102Z AUTO 00000KT 1/4SM FG VV003 16/16 A2983 RMK AO2
T01610161





000
SAUS44 KEWX 041052
MTRATT
METAR KATT 041051Z AUTO 00000KT 1/2SM FG VV003 16/16 A2984 RMK AO2
SLP100 T01610161





000
SAUS44 KEWX 041037
MTRATT
SPECI KATT 041036Z AUTO 00000KT 1/2SM FG VV003 16/16 A2984 RMK AO2
T01610161





000
SAUS44 KEWX 040952
MTRATT
METAR KATT 040951Z AUTO 00000KT 1/4SM FG VV002 16/16 A2984 RMK AO2
SLP100 T01560156





000
SAUS44 KEWX 040952
MTRATT
METAR KATT 040951Z AUTO 00000KT 1/4SM FG VV002 16/16 A2984 RMK AO2
SLP100 T01560156





000
SAUS44 KEWX 040852
MTRATT
METAR KATT 040851Z AUTO 00000KT 1/4SM FG VV002 16/16 A2984 RMK AO2
SLP102 T01560156 55004





000
SAUS44 KEWX 040852
MTRATT
METAR KATT 040851Z AUTO 00000KT 1/4SM FG VV002 16/16 A2984 RMK AO2
SLP102 T01560156 55004





000
SAUS44 KEWX 040816
MTRATT
SPECI KATT 040815Z AUTO 00000KT 1/2SM FG OVC003 16/15 A2983 RMK AO2
T01560150





000
SAUS44 KEWX 040816
MTRATT
SPECI KATT 040815Z AUTO 00000KT 1/2SM FG OVC003 16/15 A2983 RMK AO2
T01560150





000
SAUS44 KEWX 040752
MTRATT
METAR KATT 040751Z AUTO 00000KT 1/4SM FG VV003 15/15 A2984 RMK AO2
SLP102 T01500150





000
SAUS44 KEWX 040724
MTRATT
SPECI KATT 040723Z AUTO 00000KT 1/4SM FG VV003 15/15 A2985 RMK AO2
T01500150





000
SAUS44 KEWX 040724
MTRATT
SPECI KATT 040723Z AUTO 00000KT 1/4SM FG VV003 15/15 A2985 RMK AO2
T01500150





000
SAUS44 KEWX 040653
MTRATT
METAR KATT 040651Z AUTO 00000KT 1/2SM FG VV003 15/15 A2985 RMK AO2
SLP108 T01500150





000
SAUS44 KEWX 040653
MTRATT
METAR KATT 040651Z AUTO 00000KT 1/2SM FG VV003 15/15 A2985 RMK AO2
SLP108 T01500150





000
SAUS44 KEWX 040638
MTRATT
SPECI KATT 040637Z AUTO 00000KT 3/4SM BR OVC002 15/14 A2985 RMK AO2
T01500144





000
SAUS44 KEWX 040638
MTRATT
SPECI KATT 040637Z AUTO 00000KT 3/4SM BR OVC002 15/14 A2985 RMK AO2
T01500144





000
SAUS44 KEWX 040614
MTRATT
SPECI KATT 040613Z AUTO 00000KT 1 1/2SM BR OVC003 15/14 A2986 RMK
AO2 T01500144 $





000
SAUS44 KEWX 040614
MTRATT
SPECI KATT 040613Z AUTO 00000KT 1 1/2SM BR OVC003 15/14 A2986 RMK
AO2 T01500144 $





000
SAUS44 KEWX 040553
MTRATT
METAR KATT 040551Z AUTO 00000KT 2SM BR OVC003 17/15 A2987 RMK AO2
SLP112 T01720150 10172 20144 401720050 58005 $





000
SAUS44 KEWX 040553
MTRATT
METAR KATT 040551Z AUTO 00000KT 2SM BR OVC003 17/15 A2987 RMK AO2
SLP112 T01720150 10172 20144 401720050 58005 $





000
SAUS44 KEWX 040535
MTRATT
SPECI KATT 040534Z AUTO 00000KT 2 1/2SM BR OVC003 15/15 A2987 RMK
AO2 T01500150





000
SAUS44 KEWX 040535
MTRATT
SPECI KATT 040534Z AUTO 00000KT 2 1/2SM BR OVC003 15/15 A2987 RMK
AO2 T01500150





000
SAUS44 KEWX 040526
MTRATT
SPECI KATT 040525Z AUTO 19004KT 3SM BR OVC004 15/14 A2987 RMK AO2
T01500144





000
SAUS44 KEWX 040452
MTRATT
METAR KATT 040451Z AUTO 00000KT 4SM BR OVC005 16/14 A2988 RMK AO2
SLP118 T01560144





000
SAUS44 KEWX 040352
MTRATT
METAR KATT 040351Z AUTO 00000KT 5SM BR OVC006 15/14 A2989 RMK AO2
SLP122 T01500144





000
SAUS44 KEWX 040252
MTRATT
METAR KATT 040251Z AUTO 00000KT 5SM BR OVC007 15/14 A2988 RMK AO2
SLP120 T01500144 52012





000
SAUS44 KEWX 040201
MTRATT
SPECI KATT 040200Z AUTO 00000KT 4SM BR OVC008 15/14 A2988 RMK AO2
T01500139





000
SAUS44 KEWX 040152
MTRATT
METAR KATT 040151Z AUTO 00000KT 4SM BR OVC010 15/14 A2988 RMK AO2
SLP118 T01500144





000
SAUS44 KEWX 040109
MTRATT
SPECI KATT 040108Z AUTO 00000KT 4SM BR OVC010 15/14 A2985 RMK AO2
CIG 005V012 T01500144





000
SAUS44 KEWX 040109
MTRATT
SPECI KATT 040108Z AUTO 00000KT 4SM BR OVC010 15/14 A2985 RMK AO2
CIG 005V012 T01500144





000
SAUS44 KEWX 040052
MTRATT
METAR KATT 040051Z AUTO 19003KT 5SM BR BKN006 OVC011 15/14 A2985 RMK
AO2 CIG 005V009 SLP110 T01500144





000
SAUS44 KEWX 040052
MTRATT
METAR KATT 040051Z AUTO 19003KT 5SM BR BKN006 OVC011 15/14 A2985 RMK
AO2 CIG 005V009 SLP110 T01500144





000
SAUS44 KEWX 032352
MTRATT
METAR KATT 032351Z AUTO VRB06KT 5SM BR OVC006 16/14 A2985 RMK AO2
CIG 005V009 SLP108 T01560144 10156 20094 56008





000
SAUS44 KEWX 032352
MTRATT
METAR KATT 032351Z AUTO VRB06KT 5SM BR OVC006 16/14 A2985 RMK AO2
CIG 005V009 SLP108 T01560144 10156 20094 56008





000
SAUS44 KEWX 032252
MTRATT
METAR KATT 032251Z AUTO VRB05KT 4SM BR OVC005 15/14 A2985 RMK AO2
SLP109 T01500144





000
SAUS44 KEWX 032252
MTRATT
METAR KATT 032251Z AUTO VRB05KT 4SM BR OVC005 15/14 A2985 RMK AO2
SLP109 T01500144





000
SAUS44 KEWX 032231
MTRATT
SPECI KATT 032230Z AUTO 17004KT 4SM BR OVC005 15/14 A2986 RMK AO2
T01500144





000
SAUS44 KEWX 032210
MTRATT
SPECI KATT 032209Z AUTO 16004KT 3SM BR OVC004 15/14 A2986 RMK AO2
T01500144





000
SAUS44 KEWX 032152
MTRATT
METAR KATT 032151Z AUTO VRB04KT 2 1/2SM BR OVC004 15/14 A2986 RMK
AO2 SLP112 T01500144





000
SAUS44 KEWX 032152
MTRATT
METAR KATT 032151Z AUTO VRB04KT 2 1/2SM BR OVC004 15/14 A2986 RMK
AO2 SLP112 T01500144





000
SAUS44 KEWX 032138
MTRATT
SPECI KATT 032137Z AUTO VRB04KT 2 1/2SM BR OVC004 14/14 A2986 RMK
AO2 T01440139





000
SAUS44 KEWX 032127
MTRATT
SPECI KATT 032125Z AUTO VRB06KT 3SM BR OVC004 14/14 A2986 RMK AO2
T01440139





000
SAUS44 KEWX 032104
MTRATT
SPECI KATT 032102Z AUTO 18003KT 2SM BR OVC002 14/13 A2987 RMK AO2
T01390133





000
SAUS44 KEWX 032052
MTRATT
METAR KATT 032051Z AUTO 00000KT 1 3/4SM BR OVC002 13/13 A2987 RMK
AO2 SLP118 T01330133 56033





000
SAUS44 KEWX 032043
MTRATT
SPECI KATT 032042Z AUTO VRB03KT 1 1/4SM BR OVC002 13/13 A2987 RMK
AO2 T01330133





000
SAUS44 KEWX 032013
MTRATT
SPECI KATT 032011Z AUTO 00000KT 1/2SM FG VV002 12/12 A2989 RMK AO2
T01220122





000
SAUS44 KEWX 031952
MTRATT
METAR KATT 031951Z AUTO 00000KT 1/4SM FG VV002 12/12 A2990 RMK AO2
SLP128 T01170117





000
SAUS44 KEWX 031952
MTRATT
METAR KATT 031951Z AUTO 00000KT 1/4SM FG VV002 12/12 A2990 RMK AO2
SLP128 T01170117





000
SAUS44 KEWX 031939
MTRATT
SPECI KATT 031938Z AUTO 00000KT 1/4SM FG VV002 11/11 A2991 RMK AO2
T01110111





000
SAUS44 KEWX 031853
MTRATT
METAR KATT 031851Z AUTO VRB03KT 3/4SM BR OVC002 11/11 A2993 RMK AO2
SLP140 T01060106





000
SAUS44 KEWX 031853
MTRATT
METAR KATT 031851Z AUTO VRB03KT 3/4SM BR OVC002 11/11 A2993 RMK AO2
SLP140 T01060106





000
SAUS44 KEWX 031752
MTRATT
METAR KATT 031751Z AUTO 00000KT 3/4SM BR OVC002 09/09 A2997 RMK AO2
RAE21 SLP154 P0001 60001 T00940089 10094 20056 56015





000
SAUS44 KEWX 031752
MTRATT
METAR KATT 031751Z AUTO 00000KT 3/4SM BR OVC002 09/09 A2997 RMK AO2
RAE21 SLP154 P0001 60001 T00940089 10094 20056 56015





000
SAUS44 KEWX 031728
MTRATT
SPECI KATT 031726Z AUTO 00000KT 1SM BR OVC002 08/08 A2999 RMK AO2
RAE21 P0001 T00830083





000
SAUS44 KEWX 031728
MTRATT
SPECI KATT 031726Z AUTO 00000KT 1SM BR OVC002 08/08 A2999 RMK AO2
RAE21 P0001 T00830083





000
SAUS44 KEWX 031711
MTRATT
SPECI KATT 031709Z AUTO 00000KT 1/2SM -RA FG VV002 08/08 A2999 RMK
AO2 P0000 T00830083





000
SAUS44 KEWX 031711
MTRATT
SPECI KATT 031709Z AUTO 00000KT 1/2SM -RA FG VV002 08/08 A2999 RMK
AO2 P0000 T00830083





000
SAUS44 KEWX 031652
MTRATT
METAR KATT 031651Z AUTO 00000KT 1/4SM -RA FG VV002 08/08 A3000 RMK
AO2 RAB29 SLP162 P0000 T00780078





000
SAUS44 KEWX 031607
MTRATT
SPECI KATT 031606Z AUTO 00000KT 1/4SM FG OVC002 07/07 A3002 RMK AO2
T00720072





000
SAUS44 KEWX 031607
MTRATT
SPECI KATT 031606Z AUTO 00000KT 1/4SM FG OVC002 07/07 A3002 RMK AO2
T00720072





000
SAUS44 KEWX 031552
MTRATT
METAR KATT 031551Z AUTO 00000KT 1/2SM FG OVC002 07/07 A3002 RMK AO2
SLP169 T00720072





000
SAUS44 KEWX 031452
MTRATT
METAR KATT 031451Z AUTO 00000KT 1/2SM FG OVC002 07/07 A3003 RMK AO2
RAE1355 SLP172 P0000 60000 T00670067 58005





000
SAUS44 KEWX 031352
MTRATT
METAR KATT 031351Z AUTO 00000KT 3/4SM -RA BR OVC003 06/06 A3003 RMK
AO2 RAB44 SLP175 P0000 T00610061





000
SAUS44 KEWX 031352
MTRATT
METAR KATT 031351Z AUTO 00000KT 3/4SM -RA BR OVC003 06/06 A3003 RMK
AO2 RAB44 SLP175 P0000 T00610061





000
SAUS44 KEWX 031344
MTRATT
SPECI KATT 031342Z AUTO 00000KT 3/4SM BR OVC003 06/06 A3004 RMK AO2
T00610061





000
SAUS44 KEWX 031344
MTRATT
SPECI KATT 031342Z AUTO 00000KT 3/4SM BR OVC003 06/06 A3004 RMK AO2
T00610061





000
SAUS44 KEWX 031252
MTRATT
METAR KATT 031251Z AUTO 00000KT 1 1/4SM BR OVC002 06/06 A3004 RMK
AO2 SLP176 T00610056





000
SAUS44 KEWX 031252
MTRATT
METAR KATT 031251Z AUTO 00000KT 1 1/4SM BR OVC002 06/06 A3004 RMK
AO2 SLP176 T00610056





000
SAUS44 KEWX 031153
MTRATT
METAR KATT 031151Z AUTO 00000KT 1 1/4SM BR OVC003 06/06 A3004 RMK
AO2 SLP177 60000 T00560056 10056 20050 56012





000
SAUS44 KEWX 031153
MTRATT
METAR KATT 031151Z AUTO 00000KT 1 1/4SM BR OVC003 06/06 A3004 RMK
AO2 SLP177 60000 T00560056 10056 20050 56012





000
SAUS44 KEWX 031145
MTRATT
SPECI KATT 031144Z AUTO 00000KT 1 1/2SM BR OVC003 06/06 A3004 RMK
AO2 T00560056





000
SAUS44 KEWX 031145
MTRATT
SPECI KATT 031144Z AUTO 00000KT 1 1/2SM BR OVC003 06/06 A3004 RMK
AO2 T00560056





000
SAUS44 KEWX 031134
MTRATT
SPECI KATT 031133Z AUTO 00000KT 2SM BR OVC003 06/06 A3005 RMK AO2
T00560056





000
SAUS44 KEWX 031134
MTRATT
SPECI KATT 031133Z AUTO 00000KT 2SM BR OVC003 06/06 A3005 RMK AO2
T00560056





000
SAUS44 KEWX 031052
MTRATT
METAR KATT 031051Z AUTO 32003KT 4SM BR OVC003 06/06 A3005 RMK AO2
RAE06 SLP180 P0000 T00560056





000
SAUS44 KEWX 031052
MTRATT
METAR KATT 031051Z AUTO 32003KT 4SM BR OVC003 06/06 A3005 RMK AO2
RAE06 SLP180 P0000 T00560056





000
SAUS44 KEWX 031038
MTRATT
SPECI KATT 031037Z AUTO VRB03KT 4SM BR OVC003 06/06 A3005 RMK AO2
RAE06 P0000 T00560056





000
SAUS44 KEWX 031016
MTRATT
SPECI KATT 031015Z AUTO 00000KT 2 1/2SM BR OVC003 06/06 A3006 RMK
AO2 RAE06 P0000 T00560056





000
SAUS44 KEWX 031016
MTRATT
SPECI KATT 031015Z AUTO 00000KT 2 1/2SM BR OVC003 06/06 A3006 RMK
AO2 RAE06 P0000 T00560056





000
SAUS44 KEWX 031004
MTRATT
SPECI KATT 031003Z AUTO 00000KT 1 1/4SM -RA BR OVC003 06/06 A3005
RMK AO2 P0000 T00560056





000
SAUS44 KEWX 031004
MTRATT
SPECI KATT 031003Z AUTO 00000KT 1 1/4SM -RA BR OVC003 06/06 A3005
RMK AO2 P0000 T00560056





000
SAUS44 KEWX 030952
MTRATT
METAR KATT 030951Z AUTO 00000KT 3/4SM -RA BR VV003 06/06 A3006 RMK
AO2 RAB42 SLP182 P0000 T00560056





000
SAUS44 KEWX 030952
MTRATT
METAR KATT 030951Z AUTO 00000KT 3/4SM -RA BR VV003 06/06 A3006 RMK
AO2 RAB42 SLP182 P0000 T00560056





000
SAUS44 KEWX 030852
MTRATT
METAR KATT 030851Z AUTO 00000KT 3/4SM BR OVC002 06/06 A3008 RMK AO2
SLP189 T00560056 56030





000
SAUS44 KEWX 030852
MTRATT
METAR KATT 030851Z AUTO 00000KT 3/4SM BR OVC002 06/06 A3008 RMK AO2
SLP189 T00560056 56030





000
SAUS44 KEWX 030830
MTRATT
SPECI KATT 030829Z AUTO 00000KT 1 3/4SM BR OVC003 06/05 A3008 RMK
AO2 T00560050





000
SAUS44 KEWX 030753
MTRATT
METAR KATT 030751Z AUTO 00000KT 2 1/2SM BR OVC003 05/05 A3009 RMK
AO2 CIG 002V006 SLP194 T00500050





000
SAUS44 KEWX 030753
MTRATT
METAR KATT 030751Z AUTO 00000KT 2 1/2SM BR OVC003 05/05 A3009 RMK
AO2 CIG 002V006 SLP194 T00500050





000
SAUS44 KEWX 030745
MTRATT
SPECI KATT 030744Z AUTO 00000KT 2 1/2SM BR OVC003 05/05 A3009 RMK
AO2 CIG 002V006 T00500050





000
SAUS44 KEWX 030745
MTRATT
SPECI KATT 030744Z AUTO 00000KT 2 1/2SM BR OVC003 05/05 A3009 RMK
AO2 CIG 002V006 T00500050





000
SAUS44 KEWX 030730
MTRATT
SPECI KATT 030729Z AUTO 00000KT 3SM BR OVC005 05/05 A3010 RMK AO2
CIG 002V006 PRESFR T00500050





000
SAUS44 KEWX 030730
MTRATT
SPECI KATT 030729Z AUTO 00000KT 3SM BR OVC005 05/05 A3010 RMK AO2
CIG 002V006 PRESFR T00500050





000
SAUS44 KEWX 030724
MTRATT
SPECI KATT 030722Z AUTO 00000KT 2 1/2SM BR OVC003 05/05 A3012 RMK
AO2 T00500050





000
SAUS44 KEWX 030724
MTRATT
SPECI KATT 030722Z AUTO 00000KT 2 1/2SM BR OVC003 05/05 A3012 RMK
AO2 T00500050





000
SAUS44 KEWX 030701
MTRATT
SPECI KATT 030700Z AUTO 00000KT 3SM BR OVC003 06/05 A3013 RMK AO2
T00560050





000
SAUS44 KEWX 030701
MTRATT
SPECI KATT 030700Z AUTO 00000KT 3SM BR OVC003 06/05 A3013 RMK AO2
T00560050





000
SAUS44 KEWX 030652
MTRATT
METAR KATT 030651Z AUTO 00000KT 1 1/2SM BR OVC003 06/05 A3014 RMK
AO2 SLP209 T00560050





000
SAUS44 KEWX 030652
MTRATT
METAR KATT 030651Z AUTO 00000KT 1 1/2SM BR OVC003 06/05 A3014 RMK
AO2 SLP209 T00560050





000
SAUS44 KEWX 030609
MTRATT
SPECI KATT 030608Z AUTO 00000KT 1 3/4SM BR OVC004 06/05 A3015 RMK
AO2 T00560050





000
SAUS44 KEWX 030609
MTRATT
SPECI KATT 030608Z AUTO 00000KT 1 3/4SM BR OVC004 06/05 A3015 RMK
AO2 T00560050





000
SAUS44 KEWX 030552
MTRATT
METAR KATT 030551Z AUTO 00000KT 1 3/4SM BR OVC005 05/05 A3017 RMK
AO2 SLP220 60000 T00500050 10061 20050 400720033 58009





000
SAUS44 KEWX 030552
MTRATT
METAR KATT 030551Z AUTO 00000KT 1 3/4SM BR OVC005 05/05 A3017 RMK
AO2 SLP220 60000 T00500050 10061 20050 400720033 58009





000
SAUS44 KEWX 030525
MTRATT
SPECI KATT 030524Z AUTO 04003KT 1 3/4SM BR OVC005 05/05 A3018 RMK
AO2 T00500050





000
SAUS44 KEWX 030525
MTRATT
SPECI KATT 030524Z AUTO 04003KT 1 3/4SM BR OVC005 05/05 A3018 RMK
AO2 T00500050





000
SAUS44 KEWX 030517
MTRATT
SPECI KATT 030516Z AUTO 00000KT 2SM BR OVC005 05/05 A3018 RMK AO2
T00500050





000
SAUS44 KEWX 030452
MTRATT
METAR KATT 030451Z AUTO 02003KT 1 1/2SM BR OVC004 05/05 A3019 RMK
AO2 RAB06E41 SLP229 P0000 T00500050





000
SAUS44 KEWX 030452
MTRATT
METAR KATT 030451Z AUTO 02003KT 1 1/2SM BR OVC004 05/05 A3019 RMK
AO2 RAB06E41 SLP229 P0000 T00500050





000
SAUS44 KEWX 030352
MTRATT
METAR KATT 030351Z AUTO 00000KT 1 1/2SM BR OVC003 05/05 A3019 RMK
AO2 SLP230 T00500050





000
SAUS44 KEWX 030352
MTRATT
METAR KATT 030351Z AUTO 00000KT 1 1/2SM BR OVC003 05/05 A3019 RMK
AO2 SLP230 T00500050





000
SAUS44 KEWX 030317
MTRATT
SPECI KATT 030316Z AUTO 00000KT 1 3/4SM BR OVC003 06/05 A3019 RMK
AO2 T00560050





000
SAUS44 KEWX 030303
MTRATT
SPECI KATT 030301Z AUTO VRB03KT 2SM BR OVC003 06/05 A3019 RMK AO2
T00560050





000
SAUS44 KEWX 030252
MTRATT
METAR KATT 030251Z AUTO VRB03KT 1 1/2SM BR OVC003 06/05 A3019 RMK
AO2 SLP230 T00560050 53003





000
SAUS44 KEWX 030152
MTRATT
METAR KATT 030151Z AUTO 00000KT 1 1/4SM BR OVC003 06/06 A3019 RMK
AO2 SLP229 T00560056





000
SAUS44 KEWX 030152
MTRATT
METAR KATT 030151Z AUTO 00000KT 1 1/4SM BR OVC003 06/06 A3019 RMK
AO2 SLP229 T00560056





000
SAUS44 KEWX 030053
MTRATT
METAR KATT 030051Z AUTO 02004KT 1 3/4SM BR OVC003 06/06 A3018 RMK
AO2 SLP226 T00610056





000
SAUS44 KEWX 030053
MTRATT
METAR KATT 030051Z AUTO 02004KT 1 3/4SM BR OVC003 06/06 A3018 RMK
AO2 SLP226 T00610056





000
SAUS44 KEWX 022352
MTRATT
METAR KATT 022351Z AUTO VRB03KT 1 3/4SM BR OVC004 06/05 A3018 RMK
AO2 SLP227 60000 T00610050 10072 20056 58019





000
SAUS44 KEWX 022352
MTRATT
METAR KATT 022351Z AUTO VRB03KT 1 3/4SM BR OVC004 06/05 A3018 RMK
AO2 SLP227 60000 T00610050 10072 20056 58019





000
SAUS44 KEWX 022316
MTRATT
SPECI KATT 022315Z AUTO 02004KT 2 1/2SM BR OVC004 06/05 A3020 RMK
AO2 T00610050





000
SAUS44 KEWX 022316
MTRATT
SPECI KATT 022315Z AUTO 02004KT 2 1/2SM BR OVC004 06/05 A3020 RMK
AO2 T00610050





000
SAUS44 KEWX 022252
MTRATT
METAR KATT 022251Z AUTO 01003KT 2 1/2SM BR OVC005 06/06 A3021 RMK
AO2 SLP236 T00610056





000
SAUS44 KEWX 022252
MTRATT
METAR KATT 022251Z AUTO 01003KT 2 1/2SM BR OVC005 06/06 A3021 RMK
AO2 SLP236 T00610056





000
SAUS44 KEWX 022152
MTRATT
METAR KATT 022151Z AUTO 00000KT 4SM BR OVC006 07/06 A3022 RMK AO2
SLP238 T00670056





000
SAUS44 KEWX 022152
MTRATT
METAR KATT 022151Z AUTO 00000KT 4SM BR OVC006 07/06 A3022 RMK AO2
SLP238 T00670056





000
SAUS44 KEWX 022058 COR
MTRATT
METAR KATT 022051Z AUTO 34004KT 6SM BR OVC007 07/05 A3024 RMK AO2
RAB00E11 SLP246 P0000 60000 T00670050 56031





000
SAUS44 KEWX 022058 COR
MTRATT
METAR KATT 022051Z AUTO 34004KT 6SM BR OVC007 07/05 A3024 RMK AO2
RAB00E11 SLP246 P0000 60000 T00670050 56031





000
SAUS44 KEWX 022054 COR
MTRATT
METAR KATT 022051Z AUTO 34004KT 6SM BR OVC007 07/05 A3024 RMK AO2
RAB00E11 SLP246 P0000 60000 T00670050 56031





000
SAUS44 KEWX 022053 COR
MTRATT
METAR KATT 022051Z AUTO 34004KT 6SM BR OVC007 07/05 A3024 RMK AO2
RAB00E11 SLP246 P0000 60000 T00670050 56031





000
SAUS44 KEWX 022052
MTRATT
METAR KATT 022051Z AUTO 34004KT 6SM BR OVC007 07/05 A3024 RMK AO2
RAB00E11 SLP246 P0000 60000 T00670050 56031





000
SAUS44 KEWX 021952
MTRATT
METAR KATT 021951Z AUTO VRB05KT 7SM OVC006 07/05 A3026 RMK AO2
SLP252 T00670050





000
SAUS44 KEWX 021852
MTRATT
METAR KATT 021851Z AUTO 35003KT 7SM OVC007 06/04 A3030 RMK AO2
SLP268 T00610044





000
SAUS44 KEWX 021852
MTRATT
METAR KATT 021851Z AUTO 35003KT 7SM OVC007 06/04 A3030 RMK AO2
SLP268 T00610044





000
SAUS44 KEWX 021752
MTRATT
METAR KATT 021751Z AUTO VRB05KT 10SM OVC007 06/04 A3033 RMK AO2
SLP278 T00560039 10056 20033 58008





000
SAUS44 KEWX 021752
MTRATT
METAR KATT 021751Z AUTO VRB05KT 10SM OVC007 06/04 A3033 RMK AO2
SLP278 T00560039 10056 20033 58008





000
SAUS44 KEWX 021652
MTRATT
METAR KATT 021651Z AUTO VRB04KT 10SM OVC007 05/04 A3035 RMK AO2
SLP285 T00500039





000
SAUS44 KEWX 021652
MTRATT
METAR KATT 021651Z AUTO VRB04KT 10SM OVC007 05/04 A3035 RMK AO2
SLP285 T00500039





000
SAUS44 KEWX 021552
MTRATT
METAR KATT 021551Z AUTO 35005KT 9SM OVC006 04/03 A3036 RMK AO2 CIG
005V009 SLP288 T00440033





000
SAUS44 KEWX 021453
MTRATT
METAR KATT 021451Z AUTO VRB05KT 4SM BR OVC008 04/03 A3036 RMK AO2
CIG 005V010 SLP287 T00390033 52012





000
SAUS44 KEWX 021352
MTRATT
METAR KATT 021351Z AUTO VRB03KT 9SM OVC006 04/03 A3034 RMK AO2
SLP282 T00390028





000
SAUS44 KEWX 021252
MTRATT
METAR KATT 021251Z AUTO 35005KT 10SM OVC007 03/03 A3034 RMK AO2
SLP280 T00330028 $





000
SAUS44 KEWX 021152
MTRATT
METAR KATT 021151Z AUTO 36004KT 7SM OVC006 03/03 A3032 RMK AO2
RAB34E46 SLP275 P0001 60002 70005 T00330028 10039 20033 55001 $





000
SAUS44 KEWX 021052
MTRATT
METAR KATT 021051Z AUTO 33004KT 10SM OVC007 04/03 A3032 RMK AO2
SLP274 T00390028 $





000
SAUS44 KEWX 020952
MTRATT
METAR KATT 020951Z AUTO VRB04KT 10SM OVC007 04/03 A3031 RMK AO2
RAE0853B24E39 SLP272 P0000 T00390033 $





000
SAUS44 KEWX 020852
MTRATT
METAR KATT 020851Z AUTO VRB03KT 5SM -RA BR OVC006 04/03 A3033 RMK
AO2 RAB01 CIG 005V010 SLP276 P0001 60001 T00390033 58004 $





000
SAUS44 KEWX 020753
MTRATT
METAR KATT 020751Z AUTO 34004KT 6SM BR OVC005 04/03 A3034 RMK AO2
RAB24E34 SLP281 P0000 T00390033 $





000
SAUS44 KEWX 020652
MTRATT
METAR KATT 020651Z AUTO 35005KT 4SM BR OVC006 04/03 A3033 RMK AO2
SLP277 T00390033 $





000
SAUS44 KEWX 020652
MTRATT
METAR KATT 020651Z AUTO 35005KT 4SM BR OVC006 04/03 A3033 RMK AO2
SLP277 T00390033 $





000
SAUS44 KEWX 020625
MTRATT
SPECI KATT 020624Z AUTO 36007KT 330V040 3SM BR OVC005 04/03 A3034
RMK AO2 T00390033 $





000
SAUS44 KEWX 020625
MTRATT
SPECI KATT 020624Z AUTO 36007KT 330V040 3SM BR OVC005 04/03 A3034
RMK AO2 T00390033 $





000
SAUS44 KEWX 020552
MTRATT
METAR KATT 020551Z AUTO 35006KT 2 1/2SM BR OVC005 04/03 A3034 RMK
AO2 SLP281 60003 T00390033 10056 20039 400610017 51005 $





000
SAUS44 KEWX 020529
MTRATT
SPECI KATT 020528Z AUTO 34005KT 2 1/2SM BR OVC005 04/03 A3034 RMK
AO2 T00390033 $





000
SAUS44 KEWX 020529
MTRATT
SPECI KATT 020528Z AUTO 34005KT 2 1/2SM BR OVC005 04/03 A3034 RMK
AO2 T00390033 $





000
SAUS44 KEWX 020452
MTRATT
METAR KATT 020451Z AUTO 36006KT 6SM BR OVC006 04/04 A3034 RMK AO2
CIG 005V010 SLP280 T00440039 $





000
SAUS44 KEWX 020452
MTRATT
METAR KATT 020451Z AUTO 36006KT 6SM BR OVC006 04/04 A3034 RMK AO2
CIG 005V010 SLP280 T00440039 $





000
SAUS44 KEWX 020352
MTRATT
METAR KATT 020351Z AUTO VRB04KT 7SM OVC008 05/04 A3033 RMK AO2
SLP276 T00500039 $





000
SAUS44 KEWX 020352
MTRATT
METAR KATT 020351Z AUTO VRB04KT 7SM OVC008 05/04 A3033 RMK AO2
SLP276 T00500039 $





000
SAUS44 KEWX 020252
MTRATT
METAR KATT 020251Z AUTO 35004KT 6SM BR OVC008 05/04 A3032 RMK AO2
RAE15 CIG 006V011 SLP276 P0000 60003 T00500044 53021 $





000
SAUS44 KEWX 020152
MTRATT
METAR KATT 020151Z AUTO 02005KT 5SM -RA BR OVC008 05/04 A3029 RMK
AO2 CIG 005V012 SLP266 P0003 T00500044 $





000
SAUS44 KEWX 020107
MTRATT
SPECI KATT 020106Z AUTO 36008KT 3SM -RA BR OVC005 06/05 A3029 RMK
AO2 CIG 004V008 P0001 T00560050 $





000
SAUS44 KEWX 020107
MTRATT
SPECI KATT 020106Z AUTO 36008KT 3SM -RA BR OVC005 06/05 A3029 RMK
AO2 CIG 004V008 P0001 T00560050 $





000
SAUS44 KEWX 020052
MTRATT
METAR KATT 020051Z AUTO 35005KT 2 1/2SM -RA BR OVC005 06/05 A3028
RMK AO2 RAB32 SLP262 P0000 T00560050 $





000
SAUS44 KEWX 020052
MTRATT
METAR KATT 020051Z AUTO 35005KT 2 1/2SM -RA BR OVC005 06/05 A3028
RMK AO2 RAB32 SLP262 P0000 T00560050 $





000
SAUS44 KEWX 012352
MTRATT
METAR KATT 012351Z AUTO 01007KT 3SM BR OVC005 06/05 A3026 RMK AO2
SLP255 T00560050 10061 20044 53005 $





000
SAUS44 KEWX 012352
MTRATT
METAR KATT 012351Z AUTO 01007KT 3SM BR OVC005 06/05 A3026 RMK AO2
SLP255 T00560050 10061 20044 53005 $





000
SAUS44 KEWX 012317
MTRATT
SPECI KATT 012316Z AUTO 01004KT 2SM BR OVC005 06/05 A3026 RMK AO2
T00610050 $





000
SAUS44 KEWX 012317
MTRATT
SPECI KATT 012316Z AUTO 01004KT 2SM BR OVC005 06/05 A3026 RMK AO2
T00610050 $





    US Dept of Commerce
    National Oceanic and Atmospheric Administration
    National Weather Service
    1325 East West Highway
    Silver Spring, MD 20910
    Page Author: NWS Internet Services Team
Disclaimer
Information Quality
Credits
Glossary
Privacy Policy
Freedom of Information Act (FOIA)
About Us
Career Opportunities